Time;durP1;ratioP1;P1;durP2;ratioP2;P2;SDS_P1;SDS_P2;PMS_P1;PMS_P2;Temp;Humidity;BMP_temperature;BMP_pressure;BME280_temperature;BME280_humidity;BME280_pressure;Samples;Min_cycle;Max_cycle;Signal;HPM_P1;HPM_P2
2021/05/24 00:00:00;;;;;;;3.33;1.83;;;10.60;99.90;;;;;;5062908;28;20475;-57
2021/05/24 00:02:27;;;;;;;2.77;2.33;;;10.60;99.90;;;;;;5065267;28;20479;-57
2021/05/24 00:04:53;;;;;;;2.53;2.10;;;10.60;99.90;;;;;;5067260;28;20532;-58
2021/05/24 00:07:20;;;;;;;2.20;2.00;;;10.50;99.90;;;;;;5056752;28;20446;-57
2021/05/24 00:09:47;;;;;;;3.00;2.27;;;10.50;99.90;;;;;;5056296;28;20459;-57
2021/05/24 00:12:13;;;;;;;5.43;2.30;;;10.60;99.90;;;;;;5066303;28;20899;-57
2021/05/24 00:14:41;;;;;;;3.00;2.30;;;10.70;99.90;;;;;;5062227;28;20459;-57
2021/05/24 00:17:08;;;;;;;2.50;2.30;;;10.80;99.90;;;;;;5071601;28;20799;-57
2021/05/24 00:26:35;;;;;;;2.13;1.93;;;10.70;99.90;;;;;;5064332;28;20993;-57
2021/05/24 00:29:02;;;;;;;3.13;2.27;;;10.70;99.90;;;;;;5064624;28;20455;-57
2021/05/24 00:31:29;;;;;;;5.63;2.53;;;10.60;99.90;;;;;;5060619;28;20455;-57
2021/05/24 00:33:55;;;;;;;3.57;2.20;;;10.50;99.90;;;;;;5060474;28;20995;-57
2021/05/24 00:36:22;;;;;;;2.37;2.17;;;10.60;99.90;;;;;;5064563;28;20885;-58
2021/05/24 00:38:48;;;;;;;2.10;2.00;;;10.60;99.90;;;;;;5063431;28;20463;-58
2021/05/24 00:41:15;;;;;;;2.77;2.57;;;10.60;99.90;;;;;;5063862;28;20451;-57
2021/05/24 00:43:43;;;;;;;3.73;1.93;;;10.60;99.90;;;;;;5069707;28;21009;-57
2021/05/24 00:46:09;;;;;;;3.40;2.10;;;10.60;99.90;;;;;;5062849;28;20865;-57
2021/05/24 00:48:36;;;;;;;2.60;2.40;;;10.60;99.90;;;;;;5063016;28;20466;-57
2021/05/24 00:51:02;;;;;;;2.00;1.90;;;10.50;99.90;;;;;;5059597;28;20490;-57
2021/05/24 00:53:30;;;;;;;3.03;1.87;;;10.50;99.90;;;;;;5062284;28;20467;-56
2021/05/24 00:55:56;;;;;;;4.10;2.20;;;10.60;99.90;;;;;;5071312;28;20477;-58
2021/05/24 00:58:23;;;;;;;3.67;2.50;;;10.40;99.90;;;;;;5067177;28;20876;-56
2021/05/24 01:00:50;;;;;;;2.00;1.80;;;10.40;99.90;;;;;;5058050;28;20992;-57
2021/05/24 01:03:17;;;;;;;2.97;2.53;;;10.40;99.90;;;;;;5065089;28;20466;-56
2021/05/24 01:05:45;;;;;;;2.37;2.10;;;10.40;99.90;;;;;;5060231;28;20497;-56
2021/05/24 01:08:14;;;;;;;4.50;2.20;;;10.50;99.90;;;;;;5065882;28;20480;-57
2021/05/24 01:10:42;;;;;;;2.40;2.20;;;10.50;99.90;;;;;;5062124;28;20486;-57
2021/05/24 01:13:11;;;;;;;3.00;2.20;;;10.50;99.90;;;;;;5061000;28;20467;-57
2021/05/24 01:15:38;;;;;;;5.30;2.03;;;10.30;99.90;;;;;;5062923;28;20546;-57
2021/05/24 01:18:05;;;;;;;3.70;2.10;;;10.40;99.90;;;;;;5061671;28;20501;-57
2021/05/24 01:20:32;;;;;;;3.30;2.30;;;10.40;99.90;;;;;;5068330;28;20481;-57
2021/05/24 01:23:08;;;;;;;2.30;2.10;;;10.30;99.90;;;;;;5056162;28;20459;-57
2021/05/24 01:25:37;;;;;;;2.40;2.20;;;10.40;99.90;;;;;;5070552;28;20478;-57
2021/05/24 01:28:04;;;;;;;5.33;2.00;;;10.30;99.90;;;;;;5062864;28;20819;-57
2021/05/24 01:30:31;;;;;;;2.40;1.77;;;10.40;99.90;;;;;;5055446;28;20476;-57
2021/05/24 01:32:58;;;;;;;2.00;1.90;;;10.40;99.90;;;;;;5056222;28;20566;-56
2021/05/24 01:35:25;;;;;;;1.97;1.77;;;10.40;99.90;;;;;;5063785;28;20459;-57
2021/05/24 01:37:52;;;;;;;1.80;1.70;;;10.40;99.90;;;;;;5061413;28;20464;-57
2021/05/24 01:40:20;;;;;;;2.00;1.80;;;10.40;99.90;;;;;;5072778;28;20481;-57
2021/05/24 01:42:47;;;;;;;4.90;2.13;;;10.40;99.90;;;;;;5065869;28;20479;-57
2021/05/24 01:45:15;;;;;;;2.40;2.20;;;10.40;99.90;;;;;;5068139;28;20544;-57
2021/05/24 01:47:43;;;;;;;2.53;1.90;;;10.40;99.90;;;;;;5062550;28;20467;-56
2021/05/24 01:50:11;;;;;;;2.10;1.80;;;10.50;99.90;;;;;;5063561;28;20562;-57
2021/05/24 01:52:38;;;;;;;2.03;1.83;;;10.50;99.90;;;;;;5075652;22;20991;-53
2021/05/24 02:01:49;;;;;;;4.10;2.33;;;10.30;99.90;;;;;;5043599;28;20971;-53
2021/05/24 02:04:16;;;;;;;2.40;2.20;;;10.30;99.90;;;;;;5045715;28;20447;-53
2021/05/24 02:06:43;;;;;;;2.20;2.00;;;10.30;99.90;;;;;;5052067;28;20463;-52
2021/05/24 02:09:10;;;;;;;2.70;2.50;;;10.30;99.90;;;;;;5045576;28;20831;-53
2021/05/24 02:11:37;;;;;;;3.10;2.77;;;10.20;99.90;;;;;;5052559;28;20491;-52
2021/05/24 02:17:26;;;;;;;2.77;2.57;;;10.10;99.90;;;;;;5051739;28;20507;-53
2021/05/24 02:26:38;;;;;;;5.03;3.80;;;10.00;99.90;;;;;;5042328;28;20491;-53
2021/05/24 02:29:06;;;;;;;5.00;4.30;;;9.90;99.90;;;;;;5042155;28;20441;-52
2021/05/24 02:31:34;;;;;;;5.73;5.00;;;10.10;99.90;;;;;;5043966;28;20480;-52
2021/05/24 02:34:01;;;;;;;4.83;4.33;;;10.00;99.90;;;;;;5044936;28;20479;-52
2021/05/24 02:36:28;;;;;;;5.90;4.60;;;9.80;99.90;;;;;;5051493;28;20863;-52
2021/05/24 02:38:54;;;;;;;5.73;4.57;;;9.70;99.90;;;;;;5043304;28;20448;-52
2021/05/24 02:41:21;;;;;;;4.30;3.83;;;9.70;99.90;;;;;;5052559;28;20486;-52
2021/05/24 02:43:47;;;;;;;3.50;3.20;;;9.70;99.90;;;;;;5044553;28;20475;-53
2021/05/24 02:46:14;;;;;;;3.93;3.53;;;9.70;99.90;;;;;;5053093;28;20483;-53
2021/05/24 02:48:40;;;;;;;4.10;3.37;;;9.80;99.90;;;;;;5048474;28;20467;-52
2021/05/24 02:51:08;;;;;;;3.90;3.60;;;9.80;99.90;;;;;;5048810;28;20494;-52
2021/05/24 02:53:34;;;;;;;6.23;3.77;;;9.50;99.90;;;;;;5045879;28;20984;-52
2021/05/24 02:56:01;;;;;;;4.10;3.60;;;9.30;99.90;;;;;;5050970;28;20447;-52
2021/05/24 02:58:27;;;;;;;4.30;3.80;;;9.30;99.90;;;;;;5047589;28;20458;-52
2021/05/24 03:00:54;;;;;;;6.00;3.90;;;9.40;99.90;;;;;;5048927;28;20815;-52
2021/05/24 03:03:22;;;;;;;4.90;4.13;;;9.40;99.90;;;;;;5052054;28;20519;-53
2021/05/24 03:05:49;;;;;;;6.37;4.90;;;9.10;99.90;;;;;;5044361;28;20581;-52
2021/05/24 03:08:16;;;;;;;4.90;4.10;;;9.10;99.90;;;;;;5048210;28;20521;-52
2021/05/24 03:10:42;;;;;;;4.13;3.73;;;9.30;99.90;;;;;;5047357;28;20960;-53
2021/05/24 03:13:09;;;;;;;6.37;3.97;;;9.40;99.90;;;;;;5047513;28;20832;-53
2021/05/24 03:15:36;;;;;;;5.10;4.40;;;9.30;99.90;;;;;;5047542;28;20451;-52
2021/05/24 03:18:03;;;;;;;4.00;3.60;;;9.20;99.90;;;;;;5049825;28;20778;-52
2021/05/24 03:20:29;;;;;;;3.93;3.40;;;9.40;99.90;;;;;;5048076;28;20542;-52
2021/05/24 03:22:56;;;;;;;3.40;3.10;;;9.40;99.90;;;;;;5048289;28;20487;-53
2021/05/24 03:25:23;;;;;;;5.60;3.93;;;9.50;99.90;;;;;;5049835;28;20510;-52
2021/05/24 03:27:50;;;;;;;3.87;3.47;;;9.30;99.90;;;;;;5043936;28;20487;-52
2021/05/24 03:30:17;;;;;;;5.40;3.33;;;9.00;99.90;;;;;;5050062;28;20463;-53
2021/05/24 03:32:44;;;;;;;3.60;2.90;;;9.00;99.90;;;;;;5051182;28;20563;-52
2021/05/24 03:35:11;;;;;;;3.97;3.47;;;9.10;99.90;;;;;;5037057;28;20461;-52
2021/05/24 03:37:38;;;;;;;3.40;3.10;;;9.20;99.90;;;;;;5044022;28;20542;-52
2021/05/24 03:40:07;;;;;;;4.23;3.63;;;9.30;99.90;;;;;;5049275;28;20957;-52
2021/05/24 03:42:35;;;;;;;4.67;3.27;;;9.40;99.90;;;;;;5049978;28;20511;-52
2021/05/24 03:45:02;;;;;;;4.17;3.77;;;9.50;99.90;;;;;;5043058;28;20487;-52
2021/05/24 03:47:29;;;;;;;6.40;3.60;;;9.50;99.90;;;;;;5043374;28;20923;-52
2021/05/24 03:49:55;;;;;;;3.63;3.27;;;9.60;99.90;;;;;;5049241;28;20471;-53
2021/05/24 03:52:21;;;;;;;3.97;3.57;;;9.60;99.90;;;;;;5045600;28;20490;-52
2021/05/24 03:54:48;;;;;;;4.00;3.20;;;9.60;99.90;;;;;;5043661;28;20444;-52
2021/05/24 03:57:14;;;;;;;3.83;3.40;;;9.60;99.90;;;;;;5051453;28;20470;-52
2021/05/24 03:59:42;;;;;;;5.03;3.17;;;9.60;99.90;;;;;;5042318;28;20899;-52
2021/05/24 04:02:09;;;;;;;4.43;3.60;;;9.40;99.90;;;;;;5045446;28;21011;-52
2021/05/24 04:04:36;;;;;;;4.10;3.70;;;9.50;99.90;;;;;;5041414;28;20484;-52
2021/05/24 04:07:04;;;;;;;4.70;3.90;;;9.70;99.90;;;;;;5043120;28;20467;-53
2021/05/24 04:09:31;;;;;;;3.90;3.43;;;9.60;99.90;;;;;;5041977;28;20459;-52
2021/05/24 04:11:57;;;;;;;4.80;2.97;;;9.50;99.90;;;;;;5042973;28;20529;-53
2021/05/24 04:14:24;;;;;;;5.13;3.43;;;9.50;99.90;;;;;;5044747;28;20512;-52
2021/05/24 04:16:51;;;;;;;4.93;3.50;;;9.60;99.90;;;;;;5046342;28;20463;-53
2021/05/24 04:19:18;;;;;;;4.10;3.47;;;9.60;99.90;;;;;;5043052;28;20489;-52
2021/05/24 04:21:45;;;;;;;3.30;2.97;;;9.50;99.90;;;;;;5043780;28;20498;-52
2021/05/24 04:24:14;;;;;;;3.67;2.90;;;9.50;99.90;;;;;;5043005;28;20463;-53
2021/05/24 04:26:41;;;;;;;3.57;2.77;;;9.60;99.90;;;;;;5043427;28;20589;-52
2021/05/24 04:29:08;;;;;;;2.80;2.60;;;9.40;99.90;;;;;;5043632;28;20455;-52
2021/05/24 04:31:35;;;;;;;3.27;1.80;;;9.40;99.90;;;;;;5042651;28;20544;-50
2021/05/24 04:34:03;;;;;;;2.30;1.47;;;9.40;99.90;;;;;;5042650;28;20463;-50
2021/05/24 04:36:30;;;;;;;1.27;1.17;;;9.50;99.90;;;;;;5044181;28;20486;-50
2021/05/24 04:38:56;;;;;;;1.00;0.90;;;9.60;99.90;;;;;;5047375;28;20451;-50
2021/05/24 04:41:23;;;;;;;2.20;1.10;;;9.70;99.90;;;;;;5047525;28;20512;-50
2021/05/24 04:43:51;;;;;;;1.10;0.90;;;9.50;99.90;;;;;;5043548;28;20470;-50
2021/05/24 04:46:18;;;;;;;1.23;0.83;;;9.50;99.90;;;;;;5044734;28;20879;-50
2021/05/24 04:48:44;;;;;;;1.53;0.93;;;9.50;99.90;;;;;;5043499;28;20465;-50
2021/05/24 04:51:12;;;;;;;1.00;0.90;;;9.30;99.90;;;;;;5044917;28;20498;-50
2021/05/24 04:53:38;;;;;;;1.20;1.10;;;9.20;99.90;;;;;;5043948;28;20463;-50
2021/05/24 04:56:05;;;;;;;1.47;1.07;;;9.20;99.90;;;;;;5043473;28;20467;-50
2021/05/24 04:58:31;;;;;;;1.07;0.97;;;9.10;99.90;;;;;;5042370;28;20473;-50
2021/05/24 05:00:58;;;;;;;1.43;1.30;;;9.10;99.90;;;;;;5042028;28;20721;-52
2021/05/24 05:03:24;;;;;;;1.40;1.30;;;9.40;99.90;;;;;;5045472;28;20455;-52
2021/05/24 05:05:51;;;;;;;1.40;1.30;;;9.40;99.90;;;;;;5041366;28;20559;-52
2021/05/24 05:08:18;;;;;;;1.20;1.10;;;9.40;99.90;;;;;;5046092;28;20460;-52
2021/05/24 05:10:46;;;;;;;2.23;1.23;;;9.50;99.90;;;;;;5044112;28;20466;-52
2021/05/24 05:13:12;;;;;;;1.23;1.10;;;9.50;99.90;;;;;;5042640;28;20559;-53
2021/05/24 05:15:39;;;;;;;1.17;1.07;;;9.40;99.90;;;;;;5047537;28;20473;-52
2021/05/24 05:18:05;;;;;;;1.10;1.00;;;9.30;99.90;;;;;;5046177;28;20457;-52
2021/05/24 05:20:32;;;;;;;1.07;0.97;;;9.30;99.90;;;;;;5049105;28;20468;-52
2021/05/24 05:22:58;;;;;;;1.27;1.10;;;9.40;99.90;;;;;;5046994;28;20464;-52
2021/05/24 05:25:26;;;;;;;1.20;1.10;;;9.60;99.90;;;;;;5045964;28;20855;-53
2021/05/24 05:27:52;;;;;;;1.00;0.90;;;9.70;99.90;;;;;;5046619;28;21713;-52
2021/05/24 05:30:20;;;;;;;1.53;0.97;;;9.70;99.90;;;;;;5046813;28;20472;-52
2021/05/24 05:32:46;;;;;;;3.13;1.10;;;9.90;99.90;;;;;;5049709;28;20540;-52
2021/05/24 05:35:16;;;;;;;1.03;0.93;;;10.10;99.90;;;;;;5045959;28;20468;-53
2021/05/24 05:37:43;;;;;;;1.33;0.90;;;10.20;99.90;;;;;;5046032;28;20469;-52
2021/05/24 05:40:15;;;;;;;0.90;0.90;;;10.20;99.90;;;;;;5042461;28;20471;-52
2021/05/24 05:42:43;;;;;;;1.37;1.20;;;10.40;99.90;;;;;;5049054;28;20495;-53
2021/05/24 05:45:11;;;;;;;1.40;1.30;;;10.40;99.90;;;;;;5047030;28;20525;-52
2021/05/24 05:47:38;;;;;;;1.33;1.00;;;10.60;99.90;;;;;;5047449;28;20462;-52
2021/05/24 05:50:05;;;;;;;1.93;1.33;;;10.60;99.90;;;;;;5048272;28;20463;-53
2021/05/24 05:52:34;;;;;;;2.07;1.60;;;10.70;99.90;;;;;;5048907;28;20938;-52
2021/05/24 05:55:00;;;;;;;1.67;1.57;;;10.70;99.90;;;;;;5045229;28;20530;-52
2021/05/24 05:57:27;;;;;;;3.43;1.40;;;10.70;99.90;;;;;;5048685;28;20460;-53
2021/05/24 05:59:54;;;;;;;4.73;1.40;;;10.60;99.90;;;;;;5046097;28;21098;-52
2021/05/24 06:02:21;;;;;;;1.90;1.50;;;10.60;99.90;;;;;;5048980;28;20497;-52
2021/05/24 06:04:47;;;;;;;4.67;1.40;;;10.60;99.90;;;;;;5048186;28;20557;-52
2021/05/24 06:07:14;;;;;;;1.20;1.10;;;10.90;99.90;;;;;;5044555;28;20460;-52
2021/05/24 06:09:41;;;;;;;4.10;1.10;;;11.00;99.90;;;;;;5045277;28;20464;-52
2021/05/24 06:12:09;;;;;;;1.37;1.27;;;11.10;99.90;;;;;;5048009;28;20491;-53
2021/05/24 06:14:35;;;;;;;0.83;0.83;;;10.90;99.90;;;;;;5045390;28;20999;-52
2021/05/24 06:17:03;;;;;;;2.13;1.33;;;10.70;99.90;;;;;;5046198;28;20471;-52
2021/05/24 06:19:29;;;;;;;1.63;1.20;;;10.80;99.90;;;;;;5048209;28;20821;-52
2021/05/24 06:21:56;;;;;;;6.47;1.43;;;10.60;99.90;;;;;;5045073;28;20976;-52
2021/05/24 06:24:22;;;;;;;2.90;1.50;;;10.60;99.90;;;;;;5044858;28;20467;-52
2021/05/24 06:26:49;;;;;;;2.13;1.50;;;10.80;99.90;;;;;;5042552;28;20480;-52
2021/05/24 06:29:21;;;;;;;1.63;1.40;;;10.80;99.90;;;;;;5046959;28;21017;-52
2021/05/24 06:31:48;;;;;;;2.47;1.80;;;10.80;99.90;;;;;;5045643;28;20486;-53
2021/05/24 06:34:16;;;;;;;3.80;1.50;;;11.00;99.90;;;;;;5044340;28;20476;-52
2021/05/24 06:36:42;;;;;;;2.00;1.70;;;11.10;99.90;;;;;;5045414;28;20455;-52
2021/05/24 06:39:09;;;;;;;2.77;2.00;;;11.10;99.90;;;;;;5044525;28;20589;-53
2021/05/24 06:41:36;;;;;;;2.00;1.80;;;11.20;99.90;;;;;;5046126;28;20553;-53
2021/05/24 06:44:02;;;;;;;2.60;2.13;;;11.00;99.90;;;;;;5045434;28;21015;-52
2021/05/24 06:46:29;;;;;;;3.07;2.50;;;11.10;99.90;;;;;;5045136;28;20483;-52
2021/05/24 06:48:55;;;;;;;5.53;2.43;;;11.10;99.90;;;;;;5045365;28;20471;-52
2021/05/24 06:51:23;;;;;;;4.37;2.63;;;11.20;99.90;;;;;;5042733;28;20479;-52
2021/05/24 06:53:49;;;;;;;3.37;2.23;;;11.50;99.90;;;;;;5038682;28;20463;-52
2021/05/24 06:56:16;;;;;;;3.40;2.70;;;11.60;99.90;;;;;;5043755;28;20955;-52
2021/05/24 06:58:43;;;;;;;2.50;2.30;;;11.50;99.90;;;;;;5044780;28;20841;-52
2021/05/24 07:01:10;;;;;;;4.90;3.47;;;11.60;99.90;;;;;;5042983;28;20487;-53
2021/05/24 07:03:36;;;;;;;2.90;2.70;;;11.70;99.90;;;;;;5044366;28;20463;-52
2021/05/24 07:06:03;;;;;;;2.60;2.40;;;11.80;99.90;;;;;;5046842;28;20495;-52
2021/05/24 07:08:30;;;;;;;3.20;2.80;;;11.80;99.90;;;;;;5044727;28;20452;-50
2021/05/24 07:10:57;;;;;;;3.77;3.00;;;11.80;99.90;;;;;;5047972;28;21072;-50
2021/05/24 07:13:23;;;;;;;3.20;2.87;;;11.80;99.90;;;;;;5039777;28;20446;-50
2021/05/24 07:15:50;;;;;;;4.97;3.20;;;11.80;99.90;;;;;;5049152;28;20447;-50
2021/05/24 07:18:16;;;;;;;5.20;3.70;;;11.80;99.90;;;;;;5051443;28;20581;-50
2021/05/24 07:20:43;;;;;;;5.00;3.57;;;11.90;99.90;;;;;;5052532;28;20455;-50
2021/05/24 07:23:09;;;;;;;3.40;3.10;;;12.10;99.90;;;;;;5052681;28;20936;-50
2021/05/24 07:25:36;;;;;;;3.40;3.10;;;12.00;99.90;;;;;;5052429;28;20487;-50
2021/05/24 07:28:03;;;;;;;3.10;2.80;;;11.80;99.90;;;;;;5052347;28;20915;-50
2021/05/24 07:30:30;;;;;;;3.67;2.77;;;11.80;99.90;;;;;;5052706;28;20452;-51
2021/05/24 07:32:56;;;;;;;6.23;2.70;;;11.80;99.90;;;;;;5052687;28;20589;-51
2021/05/24 07:35:23;;;;;;;3.77;2.70;;;11.90;99.90;;;;;;5052457;28;20448;-51
2021/05/24 07:37:49;;;;;;;3.30;2.40;;;12.00;99.90;;;;;;5051919;28;20448;-51
2021/05/24 07:40:16;;;;;;;5.70;3.00;;;12.10;99.90;;;;;;5052444;28;20448;-51
2021/05/24 07:42:45;;;;;;;4.97;3.00;;;12.10;99.90;;;;;;5052192;28;21003;-51
2021/05/24 07:45:12;;;;;;;2.93;2.60;;;12.20;99.90;;;;;;5052225;28;20514;-51
2021/05/24 07:47:38;;;;;;;5.80;3.17;;;12.20;99.90;;;;;;5052148;28;20509;-51
2021/05/24 07:50:06;;;;;;;3.20;2.90;;;12.20;99.90;;;;;;5052226;28;20487;-50
2021/05/24 07:52:33;;;;;;;6.03;3.30;;;12.10;99.90;;;;;;5112911;22;20492;-56
2021/05/24 07:55:01;;;;;;;5.43;3.03;;;12.20;99.90;;;;;;5123353;28;20867;-57
2021/05/24 07:57:28;;;;;;;3.93;2.60;;;12.10;99.90;;;;;;5122477;28;20703;-56
2021/05/24 07:59:55;;;;;;;2.87;2.67;;;12.10;99.90;;;;;;5123301;28;20441;-56
2021/05/24 08:02:22;;;;;;;3.20;2.90;;;12.20;99.90;;;;;;5123320;28;20464;-56
2021/05/24 08:04:49;;;;;;;3.50;3.20;;;12.10;99.90;;;;;;5114636;28;20946;-56
2021/05/24 08:07:15;;;;;;;3.23;2.60;;;12.00;99.90;;;;;;5112874;28;20457;-56
2021/05/24 08:09:42;;;;;;;3.70;2.77;;;12.00;99.90;;;;;;5112754;28;20449;-56
2021/05/24 08:12:08;;;;;;;3.60;2.90;;;12.00;99.90;;;;;;5112685;28;20465;-56
2021/05/24 08:14:36;;;;;;;2.90;2.70;;;12.00;99.90;;;;;;5112698;28;20457;-56
2021/05/24 08:17:03;;;;;;;3.00;2.73;;;12.10;99.90;;;;;;5112540;28;20824;-56
2021/05/24 08:19:29;;;;;;;3.47;3.00;;;12.20;99.90;;;;;;5105594;28;20450;-56
2021/05/24 08:21:56;;;;;;;3.80;3.40;;;12.20;99.90;;;;;;5091996;28;20470;-56
2021/05/24 08:24:22;;;;;;;3.53;3.10;;;12.30;99.90;;;;;;5092002;28;20446;-56
2021/05/24 08:26:49;;;;;;;3.27;2.97;;;12.10;99.90;;;;;;5092346;28;20478;-56
2021/05/24 08:29:15;;;;;;;3.30;3.00;;;12.00;99.90;;;;;;5092045;28;20449;-56
2021/05/24 08:31:42;;;;;;;3.80;3.27;;;12.10;99.90;;;;;;5091857;28;20920;-56
2021/05/24 08:34:13;;;;;;;4.33;3.27;;;12.30;99.90;;;;;;5092019;28;20503;-56
2021/05/24 08:36:42;;;;;;;4.00;3.40;;;12.50;99.90;;;;;;5096694;28;20770;-56
2021/05/24 08:39:11;;;;;;;3.87;3.30;;;12.60;99.90;;;;;;5101142;28;20498;-56
2021/05/24 08:41:39;;;;;;;7.67;3.67;;;12.80;99.90;;;;;;5096007;28;20470;-56
2021/05/24 08:44:06;;;;;;;4.57;3.67;;;12.90;99.90;;;;;;5094693;28;20455;-56
2021/05/24 08:46:33;;;;;;;8.83;3.07;;;12.90;99.90;;;;;;5111224;28;20488;-56
2021/05/24 08:49:00;;;;;;;3.83;3.37;;;13.00;99.90;;;;;;5112206;28;20445;-57
2021/05/24 08:51:28;;;;;;;3.47;3.17;;;13.10;99.90;;;;;;5115756;28;20934;-56
2021/05/24 08:53:54;;;;;;;5.70;3.83;;;13.10;99.90;;;;;;5105027;28;20446;-56
2021/05/24 08:56:21;;;;;;;3.60;3.30;;;13.20;99.90;;;;;;5097201;28;20442;-56
2021/05/24 08:58:47;;;;;;;5.40;3.53;;;13.10;99.90;;;;;;5115876;28;20448;-56
2021/05/24 09:01:14;;;;;;;4.50;3.67;;;13.30;99.90;;;;;;5116475;28;20441;-56
2021/05/24 09:03:42;;;;;;;3.33;3.03;;;13.50;99.90;;;;;;5111487;28;20449;-56
2021/05/24 09:06:10;;;;;;;3.13;2.80;;;13.50;99.90;;;;;;5102750;28;21013;-56
2021/05/24 09:08:39;;;;;;;3.20;2.90;;;13.70;99.90;;;;;;5110419;28;20481;-56
2021/05/24 09:11:06;;;;;;;3.20;2.90;;;13.80;99.90;;;;;;5116020;28;20499;-56
2021/05/24 09:13:34;;;;;;;3.10;2.80;;;13.80;99.90;;;;;;5105866;27;20472;-56
2021/05/24 09:16:00;;;;;;;5.90;3.97;;;13.80;99.90;;;;;;5095546;28;20445;-56
2021/05/24 09:18:27;;;;;;;3.17;2.53;;;13.70;99.90;;;;;;5095565;28;20449;-56
2021/05/24 09:20:54;;;;;;;2.53;2.33;;;13.80;99.90;;;;;;5095472;28;20957;-56
2021/05/24 09:23:23;;;;;;;3.33;3.07;;;13.80;99.90;;;;;;5095327;28;20474;-56
2021/05/24 09:25:59;;;;;;;2.90;2.70;;;14.00;99.90;;;;;;5105935;28;21075;-56
2021/05/24 09:28:38;;;;;;;5.00;2.70;;;14.20;99.90;;;;;;5102105;28;20446;-56
2021/05/24 09:31:07;;;;;;;2.43;2.20;;;14.30;99.90;;;;;;5095381;28;20449;-56
2021/05/24 09:33:34;;;;;;;3.30;2.90;;;14.10;99.90;;;;;;5101017;28;20465;-56
2021/05/24 09:36:01;;;;;;;3.20;3.00;;;14.00;99.90;;;;;;5108841;28;20499;-56
2021/05/24 09:38:34;;;;;;;4.57;2.70;;;14.00;99.90;;;;;;5098321;28;20450;-56
2021/05/24 09:41:02;;;;;;;2.50;2.40;;;13.80;99.90;;;;;;5098701;28;20480;-56
2021/05/24 09:43:37;;;;;;;3.50;2.83;;;13.60;99.90;;;;;;5094936;28;20880;-56
2021/05/24 09:46:16;;;;;;;2.80;2.60;;;13.70;99.90;;;;;;5096669;28;20538;-56
2021/05/24 09:48:44;;;;;;;4.67;3.40;;;13.90;99.90;;;;;;5095087;28;20522;-56
2021/05/24 09:51:13;;;;;;;3.10;2.80;;;13.90;99.90;;;;;;5095866;28;20456;-56
2021/05/24 09:53:40;;;;;;;3.67;3.30;;;14.10;99.90;;;;;;5102996;28;20538;-56
2021/05/24 09:56:11;;;;;;;3.20;2.57;;;14.30;99.90;;;;;;5096827;28;20866;-56
2021/05/24 09:58:38;;;;;;;2.37;2.17;;;14.40;99.90;;;;;;5094690;28;20454;-56
2021/05/24 10:01:16;;;;;;;3.53;2.30;;;14.80;99.90;;;;;;5103871;28;20451;-56
2021/05/24 10:03:44;;;;;;;2.10;1.90;;;14.90;99.90;;;;;;5105666;28;20529;-56
2021/05/24 10:06:11;;;;;;;4.70;1.93;;;15.20;99.90;;;;;;5093328;28;20492;-57
2021/05/24 10:08:39;;;;;;;2.37;2.17;;;15.50;99.90;;;;;;5092487;28;20442;-56
2021/05/24 10:11:06;;;;;;;3.93;2.77;;;15.70;99.90;;;;;;5093101;28;20446;-56
2021/05/24 10:13:33;;;;;;;2.90;2.70;;;15.90;99.90;;;;;;5092984;28;20462;-56
2021/05/24 10:16:01;;;;;;;3.33;2.70;;;15.80;99.90;;;;;;5093687;28;20446;-56
2021/05/24 10:18:32;;;;;;;2.60;1.90;;;15.80;99.90;;;;;;5095048;28;20445;-56
2021/05/24 10:21:00;;;;;;;2.50;2.30;;;15.50;99.90;;;;;;5094218;28;20852;-56
2021/05/24 10:23:28;;;;;;;2.70;2.40;;;15.30;99.90;;;;;;5099184;28;20577;-56
2021/05/24 10:25:57;;;;;;;2.43;2.23;;;15.10;99.90;;;;;;5094016;28;20482;-56
2021/05/24 10:28:24;;;;;;;3.80;2.40;;;15.20;99.90;;;;;;5094320;28;20454;-56
2021/05/24 10:30:52;;;;;;;2.50;2.30;;;15.50;99.90;;;;;;5094164;28;20446;-56
2021/05/24 10:33:20;;;;;;;3.83;2.77;;;15.50;99.90;;;;;;5094377;28;20470;-56
2021/05/24 10:35:47;;;;;;;2.57;2.37;;;15.70;99.90;;;;;;5097205;28;20442;-56
2021/05/24 10:38:28;;;;;;;3.40;2.17;;;16.20;99.90;;;;;;5096787;28;20445;-56
2021/05/24 10:41:06;;;;;;;3.10;2.60;;;16.20;99.90;;;;;;5105528;28;20450;-56
2021/05/24 10:43:42;;;;;;;2.33;2.13;;;16.50;99.90;;;;;;5104320;28;20473;-56
2021/05/24 10:46:35;;;;;;;2.60;2.40;;;17.00;99.90;;;;;;5099564;28;20493;-56
2021/05/24 10:49:08;;;;;;;3.30;2.70;;;16.90;99.90;;;;;;5112191;28;20972;-56
2021/05/24 10:51:55;;;;;;;3.00;2.70;;;16.80;99.90;;;;;;5105038;28;20442;-56
2021/05/24 10:54:43;;;;;;;2.70;2.50;;;16.90;99.90;;;;;;5101451;28;20437;-56
2021/05/24 10:57:17;;;;;;;3.00;2.80;;;16.90;99.90;;;;;;5091364;28;20442;-56
2021/05/24 11:00:02;;;;;;;4.87;3.57;;;16.70;99.90;;;;;;5093757;28;20450;-56
2021/05/24 11:02:37;;;;;;;4.17;3.70;;;15.80;99.90;;;;;;5094029;28;20523;-56
2021/05/24 11:05:21;;;;;;;3.70;3.20;;;15.50;99.90;;;;;;5105398;28;20498;-56
2021/05/24 11:07:48;;;;;;;3.80;3.40;;;15.60;99.90;;;;;;5091636;28;20541;-56
2021/05/24 11:10:27;;;;;;;4.63;3.13;;;15.80;99.90;;;;;;5092941;28;20513;-56
2021/05/24 11:12:55;;;;;;;3.40;2.93;;;16.40;99.90;;;;;;5111840;28;20280;-56
2021/05/24 11:15:23;;;;;;;4.40;3.17;;;16.60;99.90;;;;;;5097619;28;20453;-56
2021/05/24 11:18:19;;;;;;;3.20;2.97;;;16.70;99.90;;;;;;5109335;28;20506;-58
2021/05/24 11:20:49;;;;;;;3.43;3.13;;;16.80;99.90;;;;;;5099797;28;20797;-56
2021/05/24 11:23:38;;;;;;;4.30;3.60;;;16.50;99.90;;;;;;5103985;28;20461;-56
2021/05/24 11:26:29;;;;;;;3.63;2.70;;;16.00;99.90;;;;;;5108782;28;20965;-56
2021/05/24 11:28:59;;;;;;;6.30;3.00;;;16.20;99.90;;;;;;5113019;28;20452;-56
2021/05/24 11:31:29;;;;;;;2.90;2.60;;;16.40;99.90;;;;;;5113393;28;20495;-56
2021/05/24 11:33:58;;;;;;;3.10;2.67;;;16.40;99.90;;;;;;5102813;28;20444;-56
2021/05/24 11:36:50;;;;;;;3.00;2.77;;;16.00;99.90;;;;;;5107616;28;20894;-56
2021/05/24 11:39:19;;;;;;;3.33;3.03;;;16.00;99.90;;;;;;5093779;28;20472;-56
2021/05/24 11:41:52;;;;;;;3.30;2.60;;;16.20;99.90;;;;;;5092672;28;20522;-56
2021/05/24 11:44:20;;;;;;;2.90;2.70;;;16.20;99.90;;;;;;5095749;28;20477;-57
2021/05/24 11:46:49;;;;;;;2.63;2.43;;;16.40;99.90;;;;;;5104206;28;20855;-56
2021/05/24 11:49:29;;;;;;;2.23;2.03;;;16.30;99.90;;;;;;5111313;28;20452;-56
2021/05/24 11:51:57;;;;;;;2.70;2.50;;;16.50;99.90;;;;;;5107656;28;20469;-56
2021/05/24 11:54:25;;;;;;;2.83;2.27;;;16.50;99.90;;;;;;5096109;28;21006;-56
2021/05/24 11:56:53;;;;;;;3.50;2.83;;;16.30;99.90;;;;;;5099045;28;20947;-56
2021/05/24 11:59:22;;;;;;;3.87;2.90;;;16.30;99.90;;;;;;5103158;28;20444;-56
2021/05/24 12:01:50;;;;;;;3.37;2.80;;;16.40;99.90;;;;;;5101340;28;20481;-56
2021/05/24 12:04:18;;;;;;;3.73;2.40;;;16.50;99.90;;;;;;5094818;28;20438;-57
2021/05/24 12:06:48;;;;;;;4.03;3.33;;;16.20;99.90;;;;;;5104358;28;20484;-57
2021/05/24 12:09:31;;;;;;;2.70;2.10;;;15.80;99.90;;;;;;5100036;28;20513;-56
2021/05/24 12:11:59;;;;;;;2.57;2.10;;;15.50;99.90;;;;;;5100540;28;20540;-56
2021/05/24 12:14:26;;;;;;;3.07;2.30;;;15.40;99.90;;;;;;5104463;28;20445;-59
2021/05/24 12:16:53;;;;;;;2.60;2.37;;;15.40;99.90;;;;;;5095225;28;20445;-58
2021/05/24 12:19:22;;;;;;;2.80;2.50;;;15.30;99.90;;;;;;5094345;28;20475;-58
2021/05/24 12:21:49;;;;;;;2.83;2.63;;;15.10;99.90;;;;;;5102696;28;20255;-58
2021/05/24 12:24:16;;;;;;;3.93;2.67;;;15.00;99.90;;;;;;5093792;28;20443;-58
2021/05/24 12:26:49;;;;;;;2.57;2.00;;;14.90;99.90;;;;;;5102446;28;20469;-58
2021/05/24 12:29:24;;;;;;;3.03;2.63;;;14.90;99.90;;;;;;5110709;28;20837;-58
2021/05/24 12:31:54;;;;;;;2.80;2.60;;;15.00;99.90;;;;;;5110531;28;20472;-58
2021/05/24 12:34:26;;;;;;;3.97;2.77;;;14.90;99.90;;;;;;5111636;28;20452;-58
2021/05/24 12:36:56;;;;;;;3.50;2.80;;;14.90;99.90;;;;;;5111007;28;20452;-58
2021/05/24 12:39:24;;;;;;;3.53;2.90;;;14.80;99.90;;;;;;5093921;28;20961;-58
2021/05/24 12:41:55;;;;;;;3.00;2.70;;;14.80;99.90;;;;;;5092763;28;20990;-57
2021/05/24 12:44:24;;;;;;;3.73;3.00;;;15.00;99.90;;;;;;5107966;28;20477;-57
2021/05/24 12:46:52;;;;;;;6.10;2.90;;;15.10;99.90;;;;;;5110497;28;20561;-58
2021/05/24 12:49:21;;;;;;;3.37;3.00;;;15.10;99.90;;;;;;5112146;28;20476;-58
2021/05/24 12:51:59;;;;;;;3.37;2.73;;;14.70;99.90;;;;;;5112183;28;20485;-57
2021/05/24 12:54:26;;;;;;;4.00;3.30;;;14.80;99.90;;;;;;5112289;28;20476;-58
2021/05/24 12:56:53;;;;;;;3.77;3.33;;;14.70;99.90;;;;;;5111459;28;20451;-58
2021/05/24 12:59:21;;;;;;;5.50;3.33;;;14.60;99.90;;;;;;5112150;28;20498;-57
2021/05/24 13:01:49;;;;;;;3.60;3.10;;;14.40;99.90;;;;;;5111911;28;20465;-57
2021/05/24 13:04:16;;;;;;;4.70;3.10;;;14.40;99.90;;;;;;5112030;28;20457;-57
2021/05/24 13:06:48;;;;;;;5.33;3.47;;;14.40;99.90;;;;;;5111199;28;20949;-57
2021/05/24 13:09:19;;;;;;;2.50;2.13;;;14.50;99.90;;;;;;5111842;28;20509;-57
2021/05/24 13:11:53;;;;;;;2.73;2.53;;;14.50;99.90;;;;;;5111977;28;20526;-57
2021/05/24 13:14:27;;;;;;;3.07;2.60;;;14.60;99.90;;;;;;5111690;28;20452;-57
2021/05/24 13:17:11;;;;;;;2.87;2.60;;;14.70;99.90;;;;;;5100720;28;20800;-57
2021/05/24 13:19:55;;;;;;;2.90;2.67;;;14.40;99.90;;;;;;5091567;28;20860;-57